createdAt,value
2023-01-29T03:14:17.945Z,0.00
2023-01-29T03:40:18.271Z,0.00
2023-01-29T03:41:17.673Z,0.00
2023-01-29T04:31:17.296Z,0.00
2023-01-29T04:45:17.043Z,0.00
2023-01-29T05:51:16.399Z,0.00
2023-01-29T07:54:15.167Z,4555.00
2023-01-29T08:09:15.019Z,7103.00
2023-01-29T08:10:15.409Z,7616.00
2023-01-29T08:11:15.001Z,8112.00
2023-01-29T08:12:14.994Z,8465.00
2023-01-29T08:13:14.991Z,8692.00
2023-01-29T08:14:14.972Z,8934.00
2023-01-29T08:15:14.955Z,9081.00
2023-01-29T08:16:15.049Z,9032.00
2023-01-29T08:17:14.937Z,9295.00
2023-01-29T08:18:14.990Z,10006.00
2023-01-29T08:19:14.920Z,10726.00
2023-01-29T08:20:15.108Z,11258.00
2023-01-29T08:21:14.894Z,11379.00
2023-01-29T08:22:14.885Z,11469.00
2023-01-29T08:23:14.889Z,11507.00
2023-01-29T08:24:14.869Z,11305.00
2023-01-29T08:25:14.891Z,11244.00
2023-01-29T08:26:14.851Z,11599.00
2023-01-29T08:27:14.833Z,12181.00
2023-01-29T08:28:14.823Z,12115.00
2023-01-29T08:29:14.813Z,11589.00
2023-01-29T08:30:14.958Z,11571.00
2023-01-29T08:31:14.836Z,11951.00
2023-01-29T08:32:14.783Z,12388.00
2023-01-29T08:33:16.204Z,12884.00
2023-01-29T08:34:14.765Z,13271.00
2023-01-29T08:35:14.750Z,13638.00
2023-01-29T08:36:14.742Z,13759.00
2023-01-29T08:37:14.735Z,13560.00
2023-01-29T08:38:14.730Z,14195.00
2023-01-29T08:39:14.717Z,15366.00
2023-01-29T08:40:14.705Z,14270.00
2023-01-29T08:41:14.693Z,14095.00
2023-01-29T08:42:14.685Z,15010.00
2023-01-29T08:43:14.698Z,15937.00
2023-01-29T08:44:14.715Z,16464.00
2023-01-29T08:45:14.647Z,16101.00
2023-01-29T08:46:14.740Z,15478.00
2023-01-29T08:47:14.630Z,15259.00
2023-01-29T08:48:14.622Z,15635.00
2023-01-29T08:49:14.610Z,16135.00
2023-01-29T08:50:14.603Z,16509.00
2023-01-29T08:51:14.606Z,15758.00
2023-01-29T08:52:14.578Z,15915.00
2023-01-29T08:53:14.566Z,15832.00
2023-01-29T08:54:14.562Z,15935.00
2023-01-29T08:55:15.070Z,16310.00
2023-01-29T08:56:14.538Z,15832.00
2023-01-29T08:57:14.532Z,15166.00
2023-01-29T08:58:14.523Z,15161.00
2023-01-29T08:59:14.507Z,15664.00
2023-01-29T09:00:14.975Z,16163.00
2023-01-29T09:01:14.559Z,16519.00
2023-01-29T09:02:14.522Z,16591.00
2023-01-29T09:03:14.469Z,16912.00
2023-01-29T09:04:14.456Z,17249.00
2023-01-29T09:05:15.100Z,17321.00
2023-01-29T09:07:14.438Z,18740.00
2023-01-29T09:08:14.416Z,19259.00
2023-01-29T09:09:14.405Z,19272.00
2023-01-29T09:10:14.417Z,19392.00
2023-01-29T09:11:14.384Z,19063.00
2023-01-29T09:12:14.373Z,18456.00
2023-01-29T09:13:14.365Z,17991.00
2023-01-29T09:14:14.350Z,18076.00
2023-01-29T09:15:14.632Z,19028.00
2023-01-29T09:16:14.393Z,19536.00
2023-01-29T09:17:14.323Z,19319.00
2023-01-29T09:18:14.311Z,19797.00
2023-01-29T09:19:14.302Z,20955.00
2023-01-29T09:20:14.340Z,23379.00
2023-01-29T09:21:14.294Z,23630.00
2023-01-29T09:22:14.275Z,23414.00
2023-01-29T09:23:14.263Z,24231.00
2023-01-29T09:24:14.252Z,24396.00
2023-01-29T09:25:14.870Z,23606.00
2023-01-29T09:26:14.301Z,23046.00
2023-01-29T09:27:14.223Z,22319.00
2023-01-29T09:28:14.212Z,21564.00
2023-01-29T09:29:14.196Z,20814.00
2023-01-29T09:30:14.207Z,21685.00
2023-01-29T09:31:14.310Z,23054.00
2023-01-29T09:32:15.576Z,23956.00
2023-01-29T09:33:14.162Z,24638.00
2023-01-29T09:34:14.160Z,24819.00
2023-01-29T09:35:14.437Z,24661.00
2023-01-29T09:36:14.130Z,24843.00
2023-01-29T09:37:14.117Z,23998.00
2023-01-29T09:38:14.116Z,23947.00
2023-01-29T09:39:14.101Z,25117.00
2023-01-29T09:40:14.091Z,26405.00
2023-01-29T09:41:14.226Z,28125.00
2023-01-29T09:42:14.065Z,29183.00
2023-01-29T09:43:14.071Z,29525.00
2023-01-29T09:44:14.070Z,28851.00
2023-01-29T09:45:14.348Z,26275.00
2023-01-29T09:46:14.057Z,24821.00
2023-01-29T09:47:14.022Z,26755.00
2023-01-29T09:48:14.007Z,31527.00
2023-01-29T09:49:13.993Z,37078.00
2023-01-29T09:50:13.984Z,36751.00
2023-01-29T09:51:13.976Z,37137.00
2023-01-29T09:52:13.967Z,31537.00
2023-01-29T09:53:13.953Z,34227.00
2023-01-29T09:54:13.943Z,40981.00
2023-01-29T09:55:14.166Z,46951.00
2023-01-29T09:56:13.919Z,45386.00
2023-01-29T09:57:13.909Z,40069.00
2023-01-29T09:58:13.898Z,39248.00
2023-01-29T09:59:13.895Z,35088.00
2023-01-29T10:00:13.877Z,33894.00
2023-01-29T10:01:14.076Z,36326.00
2023-01-29T10:02:14.009Z,44856.00
2023-01-29T10:03:13.867Z,52694.00
2023-01-29T10:04:13.937Z,48997.00
2023-01-29T10:05:14.082Z,43881.00
2023-01-29T10:06:13.824Z,40761.00
2023-01-29T10:07:13.808Z,41226.00
2023-01-29T10:08:13.797Z,40526.00
2023-01-29T10:09:13.794Z,40905.00
2023-01-29T10:10:13.781Z,38780.00
2023-01-29T10:11:13.772Z,37836.00
2023-01-29T10:12:13.759Z,38046.00
2023-01-29T10:13:13.747Z,38876.00
2023-01-29T10:14:13.740Z,39191.00
2023-01-29T10:15:13.989Z,40188.00
2023-01-29T10:16:13.721Z,40388.00
2023-01-29T10:17:13.734Z,38404.00
2023-01-29T10:18:13.696Z,38629.00
2023-01-29T10:19:13.689Z,40816.00
2023-01-29T10:20:13.680Z,41500.00
2023-01-29T10:21:13.669Z,38818.00
2023-01-29T10:22:13.661Z,38604.00
2023-01-29T10:23:13.652Z,38903.00
2023-01-29T10:24:13.638Z,42883.00
2023-01-29T10:25:13.626Z,39519.00
2023-01-29T10:26:13.650Z,38599.00
2023-01-29T10:27:13.610Z,42677.00
2023-01-29T10:28:13.598Z,42046.00
2023-01-29T10:29:13.715Z,39842.00
2023-01-29T10:30:13.577Z,39783.00
2023-01-29T10:31:13.648Z,43426.00
2023-01-29T10:32:13.711Z,42337.00
2023-01-29T10:33:13.552Z,40211.00
2023-01-29T10:34:13.537Z,44085.00
2023-01-29T10:35:13.842Z,43475.00
2023-01-29T10:36:13.511Z,41890.00
2023-01-29T10:37:13.504Z,41528.00
2023-01-29T10:38:13.495Z,47049.00
2023-01-29T10:39:13.481Z,45809.00
2023-01-29T10:40:13.475Z,40965.00
2023-01-29T10:41:13.464Z,41722.00
2023-01-29T10:42:13.467Z,47071.00
2023-01-29T10:43:13.438Z,43881.00
2023-01-29T10:44:13.429Z,38598.00
2023-01-29T10:45:13.449Z,45608.00
2023-01-29T10:46:13.408Z,49394.00
2023-01-29T10:47:13.459Z,44334.00
2023-01-29T10:48:13.391Z,52672.00
2023-01-29T10:49:13.379Z,52750.00
2023-01-29T10:50:13.383Z,44320.00
2023-01-29T10:51:13.359Z,46816.00
2023-01-29T10:52:13.364Z,51852.00
2023-01-29T10:53:13.386Z,51976.00
2023-01-29T10:54:13.338Z,44435.00
2023-01-29T10:55:13.322Z,49816.00
2023-01-29T10:56:22.369Z,51487.00
2023-01-29T10:57:13.305Z,46278.00
2023-01-29T10:58:13.292Z,47930.00
2023-01-29T10:59:13.279Z,49712.00
2023-01-29T11:00:13.348Z,52557.00
2023-01-29T11:01:13.333Z,54088.00
2023-01-29T11:02:13.256Z,55691.00
2023-01-29T11:03:26.485Z,44439.00
2023-01-29T11:04:14.257Z,47693.00
2023-01-29T11:05:13.232Z,57191.00
2023-01-29T11:06:59.909Z,58963.00
2023-01-29T11:07:13.201Z,56484.00
2023-01-29T11:08:13.198Z,55506.00
2023-01-29T11:19:28.263Z,56271.00
2023-01-29T11:43:24.687Z,14503.00
2023-01-29T14:36:19.941Z,33239.00
2023-01-29T14:36:21.352Z,33112.00
2023-01-29T15:07:30.407Z,17396.00
2023-01-29T15:07:31.827Z,17387.00
2023-01-29T15:08:31.815Z,16801.00
2023-01-29T15:09:36.434Z,17565.00
2023-01-29T15:10:31.798Z,16379.00
2023-01-29T15:11:31.814Z,14762.00
2023-01-29T15:12:31.780Z,14122.00
2023-01-29T15:13:31.769Z,14310.00
2023-01-29T15:14:31.761Z,13956.00
2023-01-29T15:15:31.778Z,13622.00
2023-01-29T15:16:31.740Z,12898.00
2023-01-29T15:17:31.730Z,12299.00
2023-01-29T15:18:31.729Z,12343.00
2023-01-29T15:19:31.708Z,11905.00
2023-01-29T15:20:31.702Z,12071.00
2023-01-29T15:21:31.690Z,12196.00
2023-01-29T15:22:31.686Z,11692.00
2023-01-29T15:23:31.679Z,11445.00
2023-01-29T15:24:31.663Z,10903.00
2023-01-29T15:25:31.651Z,10147.00
2023-01-29T15:26:31.697Z,9700.00
2023-01-29T15:27:31.635Z,9368.00
2023-01-29T15:28:31.621Z,9272.00
2023-01-29T15:29:31.611Z,8781.00
2023-01-29T15:30:31.600Z,7661.00
2023-01-29T15:31:31.779Z,6831.00
2023-01-29T15:32:31.579Z,6582.00
2023-01-29T15:33:31.568Z,6720.00
2023-01-29T15:34:31.562Z,6853.00
2023-01-29T15:35:31.549Z,7059.00
2023-01-29T15:36:31.564Z,6927.00
2023-01-29T15:37:31.529Z,6759.00
2023-01-29T15:38:31.524Z,6707.00
2023-01-29T15:39:31.507Z,6575.00
2023-01-29T15:40:31.503Z,6221.00
2023-01-29T15:41:31.493Z,5692.00
2023-01-29T15:42:31.595Z,5290.00
2023-01-29T15:43:31.485Z,5029.00
2023-01-29T15:44:31.464Z,4774.00
2023-01-29T15:45:31.493Z,4361.00
2023-01-29T15:46:31.441Z,3993.00
2023-01-29T15:47:31.551Z,3646.00
2023-01-29T15:48:32.860Z,3240.00
2023-01-29T15:49:31.410Z,2926.00
2023-01-29T15:50:31.395Z,2639.00
2023-01-29T15:51:31.395Z,2361.00
2023-01-29T15:52:31.378Z,2173.00
2023-01-29T15:53:31.369Z,1996.00
2023-01-29T15:54:31.365Z,1858.00
2023-01-29T15:55:31.353Z,1732.00
2023-01-29T15:56:31.336Z,1617.00
2023-01-29T15:57:31.326Z,1536.00
2023-01-29T15:58:31.314Z,1460.00
2023-01-29T15:59:31.302Z,1390.00
2023-01-29T16:00:31.293Z,1327.00
2023-01-29T16:01:31.337Z,1248.00
2023-01-29T16:02:31.320Z,1157.00
2023-01-29T16:03:31.263Z,1082.00
2023-01-29T16:04:31.258Z,1010.00
2023-01-29T16:05:31.242Z,933.00
2023-01-29T16:06:31.234Z,864.00
2023-01-29T16:07:31.224Z,801.00
2023-01-29T16:08:31.213Z,741.00
2023-01-29T16:09:31.204Z,697.00
2023-01-29T16:10:31.194Z,654.00
2023-01-29T16:11:31.184Z,586.00
2023-01-29T16:12:31.171Z,539.00
2023-01-29T16:14:31.155Z,485.00
2023-01-29T16:15:31.137Z,431.00
2023-01-29T16:16:31.241Z,370.00
2023-01-29T16:17:31.118Z,330.00
2023-01-29T16:18:31.134Z,289.00
2023-01-29T16:19:31.197Z,257.00
2023-01-29T16:20:31.090Z,224.00
2023-01-29T16:21:31.084Z,193.00
2023-01-29T16:22:31.082Z,196.00
2023-01-29T16:23:31.071Z,193.00
2023-01-29T16:24:31.076Z,188.00
2023-01-29T16:25:31.039Z,179.00
2023-01-29T16:26:31.079Z,163.00
2023-01-29T16:27:31.016Z,133.00
2023-01-29T16:29:30.998Z,98.00
2023-01-29T16:30:31.041Z,93.00
2023-01-29T16:31:31.059Z,89.00
2023-01-29T16:32:30.969Z,88.00
2023-01-29T16:33:30.958Z,92.00
2023-01-29T16:34:30.947Z,93.00
2023-01-29T16:35:30.945Z,89.00
2023-01-29T16:36:30.925Z,81.00
2023-01-29T16:37:30.913Z,71.00
2023-01-29T16:38:30.906Z,60.00
2023-01-29T16:39:30.895Z,48.00
2023-01-29T16:40:30.884Z,39.00
2023-01-29T16:41:30.873Z,31.00
2023-01-29T16:42:30.868Z,25.00
2023-01-29T16:43:37.437Z,20.00
2023-01-29T16:44:31.877Z,17.00
2023-01-29T16:45:30.845Z,12.00
2023-01-29T16:46:30.854Z,11.00
2023-01-29T16:47:30.816Z,9.00
2023-01-29T16:48:30.814Z,7.00
2023-01-29T16:49:30.793Z,6.00
2023-01-29T16:50:30.785Z,4.00
2023-01-29T16:51:30.778Z,3.00
2023-01-29T16:54:30.748Z,2.00
2023-01-29T16:55:30.733Z,3.00
2023-01-29T16:56:30.722Z,5.00
2023-01-29T16:57:30.718Z,1.00
2023-01-29T16:58:30.707Z,1.00
2023-01-29T16:59:30.693Z,0.00
2023-01-29T17:00:30.724Z,0.00
2023-01-29T17:01:30.673Z,0.00
2023-01-29T17:02:30.665Z,0.00
2023-01-29T17:03:30.711Z,0.00
2023-01-29T17:04:30.643Z,2.00
2023-01-29T17:05:30.635Z,2.00
2023-01-29T17:06:30.626Z,0.00
2023-01-29T17:07:30.615Z,0.00
2023-01-29T17:08:30.608Z,0.00
2023-01-29T17:09:30.595Z,0.00
2023-01-29T17:10:30.586Z,0.00
2023-01-29T17:13:30.552Z,0.00
2023-01-29T17:14:30.541Z,0.00
2023-01-29T17:15:30.542Z,1.00
2023-01-29T17:16:30.625Z,1.00
2023-01-29T17:17:30.514Z,1.00
2023-01-29T17:18:30.519Z,0.00
2023-01-29T17:19:30.493Z,1.00
2023-01-29T17:20:30.491Z,0.00
2023-01-29T17:21:30.477Z,0.00
2023-01-29T17:22:30.461Z,0.00
2023-01-29T17:23:30.451Z,0.00
2023-01-29T17:24:30.440Z,0.00
2023-01-29T17:25:30.452Z,0.00
2023-01-29T17:26:30.506Z,0.00
2023-01-29T17:27:30.409Z,0.00
2023-01-29T17:28:30.408Z,0.00
2023-01-29T17:29:30.392Z,0.00
2023-01-29T17:30:30.431Z,0.00
2023-01-29T17:31:30.425Z,0.00
2023-01-29T17:32:44.580Z,0.00
2023-01-29T17:33:31.366Z,0.00
2023-01-29T17:34:30.340Z,0.00
2023-01-29T17:35:30.336Z,0.00
2023-01-29T17:36:30.325Z,0.00
2023-01-29T17:37:30.304Z,0.00
2023-01-29T17:38:30.336Z,0.00
2023-01-29T17:39:30.287Z,0.00
2023-01-29T17:40:30.278Z,0.00
2023-01-29T17:41:30.271Z,0.00
2023-01-29T17:43:30.265Z,0.00
2023-01-29T17:44:30.239Z,0.00
2023-01-29T17:45:30.314Z,0.00
2023-01-29T17:46:30.267Z,0.00
2023-01-29T17:47:30.635Z,0.00
2023-01-29T17:48:30.200Z,0.00
2023-01-29T17:49:30.191Z,0.00
2023-01-29T17:50:30.182Z,0.00
2023-01-29T17:51:30.168Z,0.00
2023-01-29T17:52:30.158Z,0.00
2023-01-29T17:53:44.263Z,0.00
2023-01-29T17:54:31.164Z,0.00
2023-01-29T17:55:30.128Z,0.00
2023-01-29T17:56:30.119Z,0.00
2023-01-29T17:57:32.618Z,0.00
2023-01-29T17:59:30.087Z,0.00
2023-01-29T18:00:30.076Z,0.00
2023-01-29T18:06:30.029Z,0.00
2023-01-29T18:08:30.004Z,0.00
2023-01-29T18:09:29.987Z,0.00
2023-01-29T18:10:29.980Z,0.00
2023-01-29T18:11:29.969Z,0.00
2023-01-29T18:12:29.958Z,0.00
2023-01-29T18:18:29.906Z,0.00
2023-01-29T18:19:29.890Z,0.00
2023-01-29T18:20:29.880Z,0.00
2023-01-29T18:21:29.869Z,0.00
2023-01-29T18:22:29.915Z,0.00
2023-01-29T18:23:29.853Z,0.00
2023-01-29T18:24:29.843Z,0.00
2023-01-29T18:25:29.832Z,0.00
2023-01-29T18:26:29.929Z,0.00
2023-01-29T18:27:29.905Z,0.00
2023-01-29T18:28:29.815Z,0.00
2023-01-29T18:29:29.789Z,0.00
2023-01-29T18:30:29.815Z,0.00
2023-01-29T18:31:29.781Z,0.00
2023-01-29T18:32:29.828Z,0.00
2023-01-29T21:10:28.186Z,0.00
2023-01-29T22:35:27.348Z,0.00
